createdAt,value
2023-03-06T00:01:50.760Z,13.63
2023-03-06T00:04:17.509Z,13.77
2023-03-06T00:06:44.144Z,14.00
2023-03-06T00:09:10.856Z,13.87
2023-03-06T00:11:37.525Z,14.53
2023-03-06T00:14:04.136Z,13.90
2023-03-06T00:16:31.364Z,14.30
2023-03-06T00:18:57.995Z,15.00
2023-03-06T00:21:24.644Z,15.57
2023-03-06T00:23:51.226Z,16.40
2023-03-06T00:26:17.853Z,16.30
2023-03-06T00:28:45.045Z,16.43
2023-03-06T00:31:11.834Z,15.77
2023-03-06T00:33:38.504Z,17.13
2023-03-06T00:36:05.893Z,17.40
2023-03-06T00:38:35.628Z,18.40
2023-03-06T00:41:12.153Z,18.43
2023-03-06T00:43:39.217Z,17.63
2023-03-06T00:46:08.089Z,17.53
2023-03-06T00:48:35.048Z,17.63
2023-03-06T00:51:01.746Z,18.20
2023-03-06T00:53:28.395Z,17.37
2023-03-06T00:55:55.254Z,17.67
2023-03-06T00:58:22.157Z,18.17
2023-03-06T01:00:48.795Z,18.10
2023-03-06T01:03:16.239Z,17.97
2023-03-06T01:05:42.894Z,18.40
2023-03-06T01:08:09.542Z,16.20
2023-03-06T01:10:39.976Z,17.60
2023-03-06T01:13:06.940Z,16.90
2023-03-06T01:15:33.714Z,18.07
2023-03-06T01:18:00.559Z,17.50
2023-03-06T01:20:27.556Z,17.23
2023-03-06T01:22:55.684Z,17.87
2023-03-06T01:25:23.582Z,18.53
2023-03-06T01:27:51.169Z,17.63
2023-03-06T01:30:17.806Z,17.23
2023-03-06T01:32:44.836Z,17.63
2023-03-06T01:35:12.143Z,18.47
2023-03-06T01:37:39.324Z,17.80
2023-03-06T01:40:07.424Z,17.83
2023-03-06T01:42:34.055Z,17.83
2023-03-06T01:45:06.969Z,16.90
2023-03-06T01:47:34.875Z,17.87
2023-03-06T01:50:03.891Z,16.73
2023-03-06T01:52:33.074Z,18.03
2023-03-06T01:55:02.369Z,18.17
2023-03-06T01:57:31.374Z,17.07
2023-03-06T02:00:04.573Z,18.07
2023-03-06T02:02:40.577Z,18.70
2023-03-06T02:05:08.434Z,17.20
2023-03-06T02:07:36.276Z,19.40
2023-03-06T02:10:04.447Z,17.50
2023-03-06T02:12:34.069Z,18.10
2023-03-06T02:15:02.323Z,16.97
2023-03-06T02:17:29.286Z,17.07
2023-03-06T02:19:59.084Z,17.53
2023-03-06T02:22:30.005Z,17.23
2023-03-06T02:25:01.743Z,17.93
2023-03-06T02:27:28.491Z,16.97
2023-03-06T02:29:56.064Z,17.40
2023-03-06T02:32:22.679Z,17.90
2023-03-06T02:34:55.397Z,18.13
2023-03-06T02:37:23.232Z,18.60
2023-03-06T02:39:53.209Z,17.53
2023-03-06T02:42:22.250Z,16.30
2023-03-06T02:44:49.373Z,16.93
2023-03-06T02:47:16.042Z,18.10
2023-03-06T02:49:42.714Z,17.70
2023-03-06T02:52:09.539Z,18.50
2023-03-06T02:54:38.253Z,19.43
2023-03-06T02:57:06.674Z,17.67
2023-03-06T02:59:33.993Z,18.60
2023-03-06T03:02:01.721Z,18.73
2023-03-06T03:04:28.497Z,17.50
2023-03-06T03:06:55.799Z,17.97
2023-03-06T03:09:23.942Z,18.87
2023-03-06T03:11:50.651Z,19.27
2023-03-06T03:14:17.831Z,19.30
2023-03-06T03:16:46.539Z,19.10
2023-03-06T03:19:13.161Z,18.27
2023-03-06T03:21:40.388Z,18.77
2023-03-06T03:24:07.320Z,19.87
2023-03-06T03:26:34.022Z,19.10
2023-03-06T03:29:10.824Z,19.63
2023-03-06T03:31:37.575Z,18.80
2023-03-06T03:34:04.230Z,19.97
2023-03-06T03:36:34.347Z,22.00
2023-03-06T03:39:02.086Z,19.97
2023-03-06T03:41:29.025Z,21.23
2023-03-06T03:43:56.172Z,20.73
2023-03-06T03:46:24.083Z,21.70
2023-03-06T03:48:52.619Z,21.63
2023-03-06T03:51:19.494Z,22.37
2023-03-06T03:53:50.461Z,21.63
2023-03-06T03:56:20.691Z,20.07
2023-03-06T03:58:59.762Z,22.27
2023-03-06T04:01:31.672Z,22.87
2023-03-06T04:03:59.235Z,21.23
2023-03-06T04:06:26.046Z,21.53
2023-03-06T04:08:52.748Z,22.53
2023-03-06T04:11:19.890Z,22.80
2023-03-06T04:13:46.671Z,21.07
2023-03-06T04:16:13.639Z,21.97
2023-03-06T04:18:40.798Z,22.10
2023-03-06T04:21:07.806Z,21.07
2023-03-06T04:23:34.985Z,21.73
2023-03-06T04:26:02.939Z,22.97
2023-03-06T04:28:29.547Z,22.30
2023-03-06T04:30:57.520Z,20.70
2023-03-06T04:33:24.431Z,22.90
2023-03-06T04:35:51.164Z,23.90
2023-03-06T04:38:23.282Z,23.53
2023-03-06T04:40:50.027Z,23.00
2023-03-06T04:43:17.068Z,24.10
2023-03-06T04:45:43.842Z,22.47
2023-03-06T04:48:12.879Z,23.53
2023-03-06T04:50:39.496Z,25.80
2023-03-06T04:53:06.302Z,24.50
2023-03-06T04:55:32.911Z,22.73
2023-03-06T04:57:59.503Z,24.53
2023-03-06T05:00:30.607Z,24.50
2023-03-06T05:03:00.858Z,24.30
2023-03-06T05:05:27.752Z,24.70
2023-03-06T05:07:54.479Z,23.53
2023-03-06T05:10:21.156Z,24.10
2023-03-06T05:12:47.745Z,23.27
2023-03-06T05:15:14.650Z,23.47
2023-03-06T05:17:41.690Z,23.80
2023-03-06T05:20:09.763Z,23.00
2023-03-06T05:22:36.570Z,24.47
2023-03-06T05:25:05.125Z,22.93
2023-03-06T05:27:31.858Z,21.60
2023-03-06T05:29:58.449Z,23.47
2023-03-06T05:32:25.117Z,24.70
2023-03-06T05:34:51.803Z,24.10
2023-03-06T05:37:18.434Z,22.43
2023-03-06T05:39:45.299Z,23.57
2023-03-06T05:42:11.919Z,25.23
2023-03-06T05:44:38.571Z,23.83
2023-03-06T05:47:05.351Z,23.03
2023-03-06T05:49:32.679Z,22.63
2023-03-06T05:51:59.595Z,22.47
2023-03-06T05:54:28.199Z,25.17
2023-03-06T05:56:54.867Z,22.07
2023-03-06T05:59:21.510Z,23.00
2023-03-06T06:01:48.160Z,23.60
2023-03-06T06:04:15.275Z,24.83
2023-03-06T06:06:41.855Z,24.90
2023-03-06T06:09:08.401Z,24.13
2023-03-06T06:11:35.128Z,25.13
2023-03-06T06:14:01.685Z,23.87
2023-03-06T06:16:28.293Z,24.30
2023-03-06T06:18:54.854Z,24.17
2023-03-06T06:21:21.436Z,23.67
2023-03-06T06:23:48.144Z,25.20
2023-03-06T06:26:15.021Z,24.80
2023-03-06T06:28:41.732Z,24.23
2023-03-06T06:31:12.318Z,25.37
2023-03-06T06:33:39.801Z,24.40
2023-03-06T06:36:15.966Z,24.67
2023-03-06T06:38:42.639Z,23.70
2023-03-06T06:41:35.991Z,26.20
2023-03-06T06:43:58.685Z,24.43
2023-03-06T06:47:09.587Z,26.27
2023-03-06T06:49:13.011Z,24.00
2023-03-06T06:51:40.074Z,24.07
2023-03-06T06:54:07.177Z,25.27
2023-03-06T06:56:33.748Z,24.97
2023-03-06T06:59:15.751Z,23.97
2023-03-06T07:01:42.997Z,24.80
2023-03-06T07:04:11.668Z,26.00
2023-03-06T07:06:38.283Z,26.23
2023-03-06T07:09:05.663Z,23.67
2023-03-06T07:11:32.467Z,24.20
2023-03-06T07:13:59.359Z,25.33
2023-03-06T07:16:25.998Z,26.13
2023-03-06T07:18:52.613Z,25.53
2023-03-06T07:21:19.437Z,26.27
2023-03-06T07:23:46.172Z,25.33
2023-03-06T07:26:12.762Z,26.60
2023-03-06T07:28:51.466Z,26.83
2023-03-06T07:31:24.029Z,25.70
2023-03-06T07:33:51.117Z,26.27
2023-03-06T07:36:18.090Z,25.57
2023-03-06T07:38:44.920Z,25.07
2023-03-06T07:41:13.819Z,26.33
2023-03-06T07:43:41.560Z,26.13
2023-03-06T07:46:08.653Z,26.70
2023-03-06T07:48:35.690Z,26.63
2023-03-06T07:51:04.364Z,25.27
2023-03-06T07:53:31.078Z,25.17
2023-03-06T07:55:57.699Z,24.27
2023-03-06T07:58:24.723Z,23.77
2023-03-06T08:00:51.409Z,24.00
2023-03-06T08:03:18.238Z,23.50
2023-03-06T08:05:44.950Z,23.77
2023-03-06T08:08:11.864Z,24.23
2023-03-06T08:10:38.516Z,21.87
2023-03-06T08:13:05.787Z,23.23
2023-03-06T08:15:32.450Z,23.87
2023-03-06T08:17:59.169Z,22.60
2023-03-06T08:20:26.012Z,24.50
2023-03-06T08:22:52.631Z,23.20
2023-03-06T08:25:19.866Z,23.80
2023-03-06T08:27:47.445Z,21.53
2023-03-06T08:30:14.857Z,22.87
2023-03-06T08:32:42.361Z,21.27
2023-03-06T08:35:09.269Z,20.87
2023-03-06T08:37:35.959Z,20.67
2023-03-06T08:40:04.902Z,22.03
2023-03-06T08:42:32.285Z,21.20
2023-03-06T08:44:59.031Z,19.90
2023-03-06T08:47:25.768Z,20.90
2023-03-06T08:49:52.529Z,22.20
2023-03-06T08:52:19.948Z,18.87
2023-03-06T08:54:47.033Z,20.40
2023-03-06T08:57:13.681Z,18.27
2023-03-06T08:59:42.134Z,18.53
2023-03-06T09:02:12.203Z,20.23
2023-03-06T09:04:38.892Z,20.70
2023-03-06T09:07:05.502Z,19.50
2023-03-06T09:09:32.193Z,19.77
2023-03-06T09:11:58.768Z,20.33
2023-03-06T09:14:25.396Z,19.87
2023-03-06T09:16:52.040Z,20.73
2023-03-06T09:19:18.829Z,20.27
2023-03-06T09:21:45.467Z,18.77
2023-03-06T09:24:12.667Z,17.73
2023-03-06T09:26:46.257Z,20.13
2023-03-06T09:29:16.316Z,17.83
2023-03-06T09:31:43.254Z,19.07
2023-03-06T09:34:09.840Z,19.13
2023-03-06T09:36:49.507Z,18.43
2023-03-06T09:39:22.145Z,18.00
2023-03-06T09:41:49.810Z,18.93
2023-03-06T09:44:18.712Z,18.53
2023-03-06T09:46:54.664Z,17.03
2023-03-06T09:49:21.480Z,17.37
2023-03-06T09:51:55.438Z,17.90
2023-03-06T09:54:26.735Z,17.93
2023-03-06T09:56:53.369Z,19.03
2023-03-06T09:59:21.786Z,18.70
2023-03-06T10:02:00.333Z,18.00
2023-03-06T10:04:31.955Z,17.07
2023-03-06T10:07:01.232Z,18.17
2023-03-06T10:09:30.131Z,15.83
2023-03-06T10:11:59.288Z,15.67
2023-03-06T10:14:48.469Z,17.47
2023-03-06T10:17:20.371Z,16.30
2023-03-06T10:19:49.984Z,15.63
2023-03-06T10:22:25.080Z,16.37
2023-03-06T10:24:58.388Z,15.80
2023-03-06T10:27:38.787Z,15.47
2023-03-06T10:30:21.090Z,13.97
2023-03-06T10:32:58.805Z,15.00
2023-03-06T10:35:31.073Z,15.10
2023-03-06T10:38:05.261Z,15.13
2023-03-06T10:40:38.551Z,15.00
2023-03-06T10:43:11.754Z,15.00
2023-03-06T10:45:52.392Z,14.93
2023-03-06T10:48:21.370Z,14.30
2023-03-06T10:50:48.399Z,14.07
2023-03-06T10:53:21.199Z,13.53
2023-03-06T10:55:52.240Z,13.87
2023-03-06T10:58:19.980Z,13.87
2023-03-06T11:00:46.639Z,13.57
2023-03-06T11:03:15.961Z,14.17
2023-03-06T11:06:01.749Z,14.97
2023-03-06T11:08:29.404Z,14.10
2023-03-06T11:11:00.677Z,13.47
2023-03-06T11:13:28.705Z,14.63
2023-03-06T11:15:57.182Z,13.53
2023-03-06T11:18:28.743Z,13.97
2023-03-06T11:20:55.726Z,14.43
2023-03-06T11:23:22.367Z,13.50
2023-03-06T11:26:04.496Z,13.80
2023-03-06T11:28:40.859Z,12.87
2023-03-06T11:31:13.821Z,13.87
2023-03-06T11:33:40.419Z,11.67
2023-03-06T11:36:23.104Z,13.30
2023-03-06T11:38:50.912Z,12.27
2023-03-06T11:41:36.128Z,13.50
2023-03-06T11:44:02.764Z,13.53
2023-03-06T11:46:38.683Z,12.63
2023-03-06T11:49:12.191Z,14.00
2023-03-06T11:51:41.072Z,13.30
2023-03-06T11:54:10.233Z,13.43
2023-03-06T11:56:55.174Z,12.23
2023-03-06T11:59:40.376Z,12.97
2023-03-06T12:02:27.663Z,13.37
2023-03-06T12:05:03.707Z,12.40
2023-03-06T12:07:33.136Z,11.10
2023-03-06T12:10:09.248Z,11.77
2023-03-06T12:12:49.671Z,11.73
2023-03-06T12:15:28.667Z,12.70
2023-03-06T12:18:03.477Z,12.90
2023-03-06T12:20:49.002Z,12.70
2023-03-06T12:23:21.888Z,12.27
2023-03-06T12:25:55.233Z,11.93
2023-03-06T12:28:24.874Z,11.70
2023-03-06T12:31:10.437Z,11.77
2023-03-06T12:33:49.122Z,10.57
2023-03-06T12:36:34.307Z,9.67
2023-03-06T12:39:09.264Z,9.77
2023-03-06T12:41:43.665Z,10.40
2023-03-06T12:44:17.481Z,10.70
2023-03-06T12:47:03.893Z,10.73
2023-03-06T12:49:33.290Z,9.93
2023-03-06T12:52:00.998Z,10.80
2023-03-06T12:54:29.382Z,11.13
2023-03-06T12:56:57.300Z,10.70
2023-03-06T12:59:42.780Z,11.60
2023-03-06T13:02:09.455Z,11.23
2023-03-06T13:04:48.783Z,11.10
2023-03-06T13:07:30.751Z,10.60
2023-03-06T13:10:03.578Z,10.10
2023-03-06T13:12:36.712Z,10.67
2023-03-06T13:15:23.236Z,9.83
2023-03-06T13:17:49.900Z,10.00
2023-03-06T13:20:16.517Z,10.43
2023-03-06T13:22:47.178Z,11.33
2023-03-06T13:25:16.809Z,10.93
2023-03-06T13:27:46.948Z,11.50
2023-03-06T13:30:32.940Z,11.27
2023-03-06T13:32:59.707Z,10.80
2023-03-06T13:35:32.608Z,11.97
2023-03-06T13:37:59.974Z,14.93
2023-03-06T13:40:27.926Z,13.70
2023-03-06T13:43:00.796Z,11.77
2023-03-06T13:45:30.021Z,11.47
2023-03-06T13:50:46.345Z,11.80
2023-03-06T13:53:16.010Z,12.47
2023-03-06T13:55:48.704Z,11.40
2023-03-06T13:58:34.217Z,11.43
2023-03-06T14:01:19.429Z,12.37
2023-03-06T14:03:55.233Z,12.30
2023-03-06T14:06:34.208Z,11.07
2023-03-06T14:09:05.456Z,12.20
2023-03-06T14:11:32.359Z,11.30
2023-03-06T14:13:59.163Z,11.57
2023-03-06T14:16:29.096Z,10.67
2023-03-06T14:18:58.459Z,10.73
2023-03-06T14:21:27.882Z,11.93
2023-03-06T14:24:04.754Z,11.77
2023-03-06T14:26:43.023Z,12.53
2023-03-06T14:29:23.022Z,11.87
2023-03-06T14:31:50.954Z,12.70
2023-03-06T14:34:17.568Z,11.10
2023-03-06T14:36:51.406Z,10.93
2023-03-06T14:39:37.361Z,11.93
2023-03-06T14:42:19.345Z,11.53
2023-03-06T14:44:46.612Z,11.83
2023-03-06T14:47:22.118Z,10.70
2023-03-06T14:50:08.681Z,12.63
2023-03-06T14:52:35.947Z,12.00
2023-03-06T14:55:02.866Z,12.17
2023-03-06T14:57:29.560Z,12.23
2023-03-06T14:59:58.298Z,12.83
2023-03-06T15:02:27.275Z,12.87
2023-03-06T15:04:56.714Z,12.37
2023-03-06T15:07:25.750Z,13.27
2023-03-06T15:09:53.703Z,12.67
2023-03-06T15:12:20.767Z,13.77
2023-03-06T15:14:57.935Z,12.90
2023-03-06T15:17:27.673Z,13.03
2023-03-06T15:19:55.858Z,12.77
2023-03-06T15:22:25.462Z,14.10
2023-03-06T15:24:52.422Z,12.93
2023-03-06T15:27:20.716Z,13.23
2023-03-06T15:29:47.456Z,13.30
2023-03-06T15:32:16.396Z,13.20
2023-03-06T15:34:43.179Z,12.57
2023-03-06T15:37:20.404Z,11.40
2023-03-06T15:40:01.036Z,12.67
2023-03-06T15:42:28.125Z,11.80
2023-03-06T15:44:56.566Z,11.83
2023-03-06T15:47:23.237Z,12.20
2023-03-06T15:49:52.555Z,13.23
2023-03-06T15:52:22.404Z,14.03
2023-03-06T15:54:49.044Z,12.60
2023-03-06T15:57:20.715Z,13.33
2023-03-06T15:59:47.411Z,12.83
2023-03-06T16:02:15.925Z,13.00
2023-03-06T16:04:43.230Z,13.27
2023-03-06T16:07:10.398Z,12.30
2023-03-06T16:09:37.199Z,12.83
2023-03-06T16:12:04.441Z,12.83
2023-03-06T16:14:31.304Z,13.20
2023-03-06T16:16:59.609Z,13.33
2023-03-06T16:19:27.567Z,24.37
2023-03-06T16:21:54.962Z,15.40
2023-03-06T16:24:21.980Z,12.30
2023-03-06T16:26:50.983Z,15.30
2023-03-06T16:29:18.625Z,15.73
2023-03-06T16:31:45.855Z,16.77
2023-03-06T16:34:12.941Z,46.73
2023-03-06T16:36:39.829Z,16.83
2023-03-06T16:39:06.584Z,17.20
2023-03-06T16:41:34.274Z,15.47
2023-03-06T16:44:01.104Z,13.87
2023-03-06T16:46:27.938Z,12.27
2023-03-06T16:49:04.526Z,11.83
2023-03-06T16:51:31.902Z,12.97
2023-03-06T16:54:02.240Z,13.40
2023-03-06T16:56:29.003Z,12.50
2023-03-06T16:58:55.554Z,14.67
2023-03-06T17:01:22.258Z,13.30
2023-03-06T17:03:49.073Z,13.33
2023-03-06T17:06:20.696Z,12.80
2023-03-06T17:08:48.126Z,12.03
2023-03-06T17:11:15.190Z,12.20
2023-03-06T17:13:42.079Z,12.00
2023-03-06T17:16:11.643Z,12.07
2023-03-06T17:18:38.450Z,13.87
2023-03-06T17:21:05.262Z,13.23
2023-03-06T17:23:31.917Z,13.30
2023-03-06T17:26:07.004Z,13.17
2023-03-06T17:28:34.032Z,11.80
2023-03-06T17:31:01.823Z,9.80
2023-03-06T17:33:28.812Z,23.17
2023-03-06T17:35:59.564Z,12.30
2023-03-06T17:38:29.515Z,12.60
2023-03-06T17:41:03.894Z,12.30
2023-03-06T17:43:31.152Z,12.43
2023-03-06T17:46:02.016Z,12.87
2023-03-06T17:48:28.645Z,19.07
2023-03-06T17:50:55.804Z,19.53
2023-03-06T17:53:23.245Z,12.73
2023-03-06T17:55:50.086Z,12.70
2023-03-06T17:58:17.228Z,13.43
2023-03-06T18:00:43.894Z,14.43
2023-03-06T18:03:10.900Z,13.40
2023-03-06T18:05:37.888Z,14.17
2023-03-06T18:08:04.983Z,12.27
2023-03-06T18:10:31.570Z,13.63
2023-03-06T18:12:58.259Z,13.00
2023-03-06T18:15:24.912Z,13.10
2023-03-06T18:17:51.653Z,12.23
2023-03-06T18:20:18.315Z,13.13
2023-03-06T18:22:44.920Z,14.50
2023-03-06T18:25:11.562Z,14.13
2023-03-06T18:27:38.167Z,12.47
2023-03-06T18:30:05.170Z,12.23
2023-03-06T18:32:31.973Z,12.87
2023-03-06T18:34:58.751Z,13.83
2023-03-06T18:37:25.460Z,12.90
2023-03-06T18:39:52.237Z,12.23
2023-03-06T18:42:18.978Z,14.60
2023-03-06T18:44:47.877Z,16.33
2023-03-06T18:47:16.623Z,14.90
2023-03-06T18:49:45.254Z,13.23
2023-03-06T18:52:12.710Z,12.53
2023-03-06T18:54:39.440Z,11.63
2023-03-06T18:57:06.234Z,13.50
2023-03-06T18:59:33.162Z,13.30
2023-03-06T19:01:59.886Z,12.90
2023-03-06T19:04:27.171Z,13.60
2023-03-06T19:06:54.839Z,14.10
2023-03-06T19:09:21.763Z,12.83
2023-03-06T19:11:48.692Z,13.53
2023-03-06T19:14:17.120Z,12.73
2023-03-06T19:16:43.929Z,14.07
2023-03-06T19:19:10.739Z,13.40
2023-03-06T19:21:37.440Z,12.33
2023-03-06T19:24:04.148Z,13.60
2023-03-06T19:26:31.396Z,12.63
2023-03-06T19:28:58.304Z,13.97
2023-03-06T19:31:26.662Z,13.10
2023-03-06T19:33:54.301Z,14.33
2023-03-06T19:36:26.578Z,14.47
2023-03-06T19:39:00.413Z,12.83
2023-03-06T19:41:27.493Z,13.17
2023-03-06T19:43:55.894Z,13.07
2023-03-06T19:46:23.817Z,12.77
2023-03-06T19:48:54.829Z,12.47
2023-03-06T19:51:22.186Z,14.00
2023-03-06T19:53:48.818Z,12.53
2023-03-06T19:56:19.897Z,12.63
2023-03-06T19:58:47.030Z,13.70
2023-03-06T20:01:14.906Z,14.07
2023-03-06T20:03:41.697Z,12.30
2023-03-06T20:06:12.961Z,14.00
2023-03-06T20:08:39.824Z,14.13
2023-03-06T20:11:06.564Z,15.50
2023-03-06T20:13:33.315Z,12.60
2023-03-06T20:16:02.484Z,13.47
2023-03-06T20:18:29.604Z,14.70
2023-03-06T20:21:03.393Z,14.07
2023-03-06T20:23:30.297Z,15.13
2023-03-06T20:25:56.994Z,13.40
2023-03-06T20:28:23.677Z,14.93
2023-03-06T20:30:50.390Z,13.57
2023-03-06T20:33:17.073Z,13.73
2023-03-06T20:35:44.189Z,15.43
2023-03-06T20:38:11.080Z,14.40
2023-03-06T20:40:38.972Z,15.83
2023-03-06T20:43:06.225Z,16.40
2023-03-06T20:45:33.413Z,14.27
2023-03-06T20:48:00.544Z,16.50
2023-03-06T20:50:27.758Z,15.30
2023-03-06T20:52:55.370Z,16.50
2023-03-06T20:55:22.853Z,14.77
2023-03-06T20:57:50.348Z,14.87
2023-03-06T21:00:17.683Z,18.10
2023-03-06T21:02:44.419Z,16.73
2023-03-06T21:05:11.124Z,13.73
2023-03-06T21:07:37.911Z,15.47
2023-03-06T21:10:04.857Z,15.20
2023-03-06T21:12:31.637Z,14.97
2023-03-06T21:14:59.193Z,15.27
2023-03-06T21:17:25.905Z,15.57
2023-03-06T21:19:52.897Z,14.50
2023-03-06T21:22:19.756Z,14.73
2023-03-06T21:24:47.193Z,16.07
2023-03-06T21:27:14.022Z,15.20
2023-03-06T21:29:40.882Z,15.70
2023-03-06T21:32:07.599Z,12.63
2023-03-06T21:34:34.719Z,14.00
2023-03-06T21:37:01.394Z,13.90
2023-03-06T21:39:28.026Z,16.00
2023-03-06T21:41:54.677Z,13.80
2023-03-06T21:44:21.543Z,14.00
2023-03-06T21:46:49.415Z,14.07
2023-03-06T21:49:16.176Z,14.77
2023-03-06T21:51:43.303Z,14.30
2023-03-06T21:54:10.794Z,14.13
2023-03-06T21:56:37.748Z,13.40
2023-03-06T21:59:04.456Z,14.50
2023-03-06T22:01:31.147Z,13.13
2023-03-06T22:03:58.450Z,12.83
2023-03-06T22:06:26.380Z,13.63
2023-03-06T22:08:54.421Z,13.80
2023-03-06T22:11:22.276Z,11.97
2023-03-06T22:13:49.270Z,14.20
2023-03-06T22:16:16.814Z,12.70
2023-03-06T22:18:47.129Z,11.77
2023-03-06T22:21:14.911Z,13.03
2023-03-06T22:23:41.586Z,10.50
2023-03-06T22:26:10.132Z,12.60
2023-03-06T22:28:36.825Z,13.30
2023-03-06T22:31:04.693Z,13.20
2023-03-06T22:33:31.297Z,13.47
2023-03-06T22:36:06.424Z,11.73
2023-03-06T22:38:37.402Z,10.97
2023-03-06T22:41:04.978Z,10.53
2023-03-06T22:43:32.052Z,10.43
2023-03-06T22:46:02.574Z,10.97
2023-03-06T22:48:29.862Z,10.97
2023-03-06T22:50:56.590Z,11.30
2023-03-06T22:53:23.186Z,12.03
2023-03-06T22:55:49.886Z,9.43
2023-03-06T22:58:16.596Z,9.80
2023-03-06T23:00:43.238Z,11.97
2023-03-06T23:03:09.845Z,10.50
2023-03-06T23:05:40.140Z,11.60
2023-03-06T23:08:06.857Z,10.13
2023-03-06T23:10:37.025Z,9.67
2023-03-06T23:13:22.330Z,9.80
2023-03-06T23:16:08.215Z,11.07
2023-03-06T23:18:54.044Z,10.60
2023-03-06T23:21:39.337Z,9.27
2023-03-06T23:24:25.330Z,9.77
2023-03-06T23:26:52.071Z,9.43
2023-03-06T23:29:18.720Z,10.53
2023-03-06T23:31:45.394Z,9.97
2023-03-06T23:34:12.087Z,8.87
2023-03-06T23:36:38.864Z,10.07
2023-03-06T23:39:05.510Z,9.17
2023-03-06T23:41:32.277Z,9.50
2023-03-06T23:43:59.013Z,9.37
2023-03-06T23:46:25.767Z,9.13
2023-03-06T23:48:52.635Z,9.80
2023-03-06T23:51:20.455Z,10.77
2023-03-06T23:53:47.756Z,7.90
2023-03-06T23:56:14.535Z,9.10
2023-03-06T23:58:41.258Z,7.93
